createdAt,value
2022-12-08T00:00:22.960Z,3.70
2022-12-08T00:02:50.830Z,3.33
2022-12-08T00:05:35.826Z,4.30
2022-12-08T00:08:20.927Z,4.50
2022-12-08T00:10:49.380Z,4.50
2022-12-08T00:13:16.351Z,5.47
2022-12-08T00:15:42.712Z,6.10
2022-12-08T00:18:09.077Z,6.45
2022-12-08T00:20:35.393Z,6.07
2022-12-08T00:23:01.769Z,6.38
2022-12-08T00:25:28.093Z,7.07
2022-12-08T00:27:54.451Z,5.85
2022-12-08T00:30:20.806Z,6.45
2022-12-08T00:32:47.168Z,6.13
2022-12-08T00:35:13.576Z,6.05
2022-12-08T00:37:39.937Z,7.25
2022-12-08T00:40:06.793Z,6.45
2022-12-08T00:42:33.316Z,6.50
2022-12-08T00:44:59.667Z,6.57
2022-12-08T00:47:25.985Z,6.45
2022-12-08T00:49:52.384Z,6.88
2022-12-08T00:52:18.796Z,6.97
2022-12-08T00:54:45.141Z,7.50
2022-12-08T00:57:11.596Z,8.45
2022-12-08T00:59:37.885Z,8.48
2022-12-08T01:02:04.210Z,9.52
2022-12-08T01:04:30.665Z,10.13
2022-12-08T01:06:56.974Z,9.55
2022-12-08T01:09:23.420Z,9.15
2022-12-08T01:11:49.901Z,10.13
2022-12-08T01:14:16.282Z,9.73
2022-12-08T01:16:42.821Z,10.80
2022-12-08T01:19:10.672Z,9.57
2022-12-08T01:21:37.005Z,11.02
2022-12-08T01:24:03.474Z,9.10
2022-12-08T01:26:29.913Z,9.82
2022-12-08T01:28:56.285Z,9.43
2022-12-08T01:31:23.621Z,9.77
2022-12-08T01:33:50.284Z,9.43
2022-12-08T01:36:21.783Z,8.27
2022-12-08T01:38:48.252Z,7.93
2022-12-08T01:41:16.103Z,7.75
2022-12-08T01:43:54.222Z,6.40
2022-12-08T01:46:22.476Z,4.30
2022-12-08T01:48:50.061Z,3.92
2022-12-08T01:51:16.431Z,4.10
2022-12-08T01:53:43.484Z,3.33
2022-12-08T01:56:14.275Z,4.45
2022-12-08T01:58:45.987Z,4.38
2022-12-08T02:01:12.579Z,4.85
2022-12-08T02:03:58.800Z,4.10
2022-12-08T02:06:27.039Z,4.07
2022-12-08T02:08:57.444Z,4.30
2022-12-08T02:11:23.828Z,3.55
2022-12-08T02:13:52.034Z,3.58
2022-12-08T02:16:18.454Z,3.78
2022-12-08T02:19:08.245Z,3.85
2022-12-08T02:21:56.391Z,4.25
2022-12-08T02:24:25.489Z,4.88
2022-12-08T02:27:07.082Z,5.55
2022-12-08T02:29:59.481Z,5.80
2022-12-08T02:32:37.879Z,6.73
2022-12-08T02:35:13.131Z,8.00
2022-12-08T02:37:43.793Z,7.18
2022-12-08T02:40:25.571Z,8.23
2022-12-08T02:42:56.957Z,8.18
2022-12-08T02:45:31.252Z,7.97
2022-12-08T02:47:58.586Z,8.27
2022-12-08T02:50:26.810Z,9.38
2022-12-08T02:52:53.369Z,8.88
2022-12-08T02:55:22.748Z,9.18
2022-12-08T02:58:14.347Z,9.90
2022-12-08T03:00:44.588Z,9.60
2022-12-08T03:03:35.420Z,8.90
2022-12-08T03:06:06.562Z,9.70
2022-12-08T03:08:42.104Z,9.60
2022-12-08T03:11:27.356Z,9.60
2022-12-08T03:13:56.128Z,9.02
2022-12-08T03:16:27.443Z,6.22
2022-12-08T03:19:01.167Z,6.25
2022-12-08T03:21:28.393Z,7.00
2022-12-08T03:23:56.061Z,8.25
2022-12-08T03:26:45.481Z,6.95
2022-12-08T03:29:12.416Z,8.07
2022-12-08T03:31:41.612Z,5.65
2022-12-08T03:34:09.312Z,7.80
2022-12-08T03:36:36.005Z,7.47
2022-12-08T03:39:02.331Z,7.90
2022-12-08T03:41:28.753Z,6.55
2022-12-08T03:43:56.012Z,6.75
2022-12-08T03:48:48.967Z,4.82
2022-12-08T03:51:15.862Z,5.53
2022-12-08T03:53:42.604Z,4.72
2022-12-08T03:56:15.634Z,4.40
2022-12-08T03:58:42.988Z,4.45
2022-12-08T04:01:09.314Z,3.88
2022-12-08T04:03:35.632Z,4.35
2022-12-08T04:06:02.010Z,3.67
2022-12-08T04:08:28.351Z,2.63
2022-12-08T04:10:54.767Z,2.90
2022-12-08T04:13:21.145Z,2.85
2022-12-08T04:15:48.211Z,2.60
2022-12-08T04:18:14.657Z,2.42
2022-12-08T04:20:42.034Z,2.17
2022-12-08T04:23:08.576Z,2.60
2022-12-08T04:25:35.537Z,2.13
2022-12-08T04:28:02.498Z,2.30
2022-12-08T04:30:28.902Z,1.92
2022-12-08T04:32:55.309Z,1.95
2022-12-08T04:35:21.750Z,1.90
2022-12-08T04:37:48.154Z,2.33
2022-12-08T04:40:14.553Z,2.38
2022-12-08T04:42:41.187Z,2.28
2022-12-08T04:45:07.695Z,1.90
2022-12-08T04:47:34.064Z,2.25
2022-12-08T04:50:00.536Z,2.10
2022-12-08T04:52:26.907Z,1.83
2022-12-08T04:54:53.271Z,2.10
2022-12-08T04:57:19.658Z,1.88
2022-12-08T04:59:46.039Z,2.47
2022-12-08T05:02:13.433Z,2.58
2022-12-08T05:04:42.586Z,3.40
2022-12-08T05:07:11.571Z,2.78
2022-12-08T05:09:37.945Z,2.10
2022-12-08T05:12:04.758Z,2.70
2022-12-08T05:14:31.079Z,3.13
2022-12-08T05:16:57.384Z,2.45
2022-12-08T05:19:23.938Z,2.30
2022-12-08T05:21:50.292Z,2.20
2022-12-08T05:24:16.681Z,2.50
2022-12-08T05:26:43.044Z,2.63
2022-12-08T05:29:09.373Z,2.28
2022-12-08T05:31:35.792Z,2.35
2022-12-08T05:34:03.395Z,2.60
2022-12-08T05:36:30.007Z,1.88
2022-12-08T05:38:58.968Z,2.05
2022-12-08T05:41:25.364Z,1.60
2022-12-08T05:43:51.664Z,1.20
2022-12-08T05:46:18.066Z,1.17
2022-12-08T05:48:46.821Z,1.20
2022-12-08T05:51:16.902Z,1.40
2022-12-08T05:53:43.304Z,1.50
2022-12-08T05:56:09.640Z,1.52
2022-12-08T05:58:35.953Z,1.42
2022-12-08T06:01:03.177Z,1.27
2022-12-08T06:03:29.591Z,1.50
2022-12-08T06:05:55.970Z,1.83
2022-12-08T06:08:22.413Z,1.50
2022-12-08T06:10:49.371Z,1.83
2022-12-08T06:13:15.907Z,1.88
2022-12-08T06:15:44.872Z,1.75
2022-12-08T06:18:11.941Z,1.80
2022-12-08T06:20:38.271Z,1.63
2022-12-08T06:23:04.624Z,2.47
2022-12-08T06:25:30.946Z,1.45
2022-12-08T06:27:57.297Z,1.90
2022-12-08T06:30:23.661Z,1.60
2022-12-08T06:32:50.029Z,1.60
2022-12-08T06:35:16.430Z,1.40
2022-12-08T06:37:42.790Z,1.73
2022-12-08T06:40:09.339Z,1.48
2022-12-08T06:42:44.835Z,1.88
2022-12-08T06:45:11.756Z,1.77
2022-12-08T06:47:38.200Z,1.25
2022-12-08T06:50:05.508Z,1.50
2022-12-08T06:52:32.003Z,1.45
2022-12-08T06:54:58.503Z,1.27
2022-12-08T06:57:25.629Z,1.30
2022-12-08T06:59:51.961Z,1.20
2022-12-08T07:02:18.314Z,1.20
2022-12-08T07:04:44.681Z,1.25
2022-12-08T07:07:11.075Z,1.20
2022-12-08T07:09:37.513Z,1.40
2022-12-08T07:12:04.242Z,1.17
2022-12-08T07:14:30.631Z,1.25
2022-12-08T07:16:57.099Z,1.50
2022-12-08T07:19:23.494Z,1.38
2022-12-08T07:21:49.797Z,1.45
2022-12-08T07:24:16.157Z,1.40
2022-12-08T07:26:42.469Z,1.75
2022-12-08T07:29:09.805Z,2.20
2022-12-08T07:31:36.256Z,2.45
2022-12-08T07:34:02.617Z,2.70
2022-12-08T07:36:29.039Z,2.67
2022-12-08T07:38:55.553Z,3.45
2022-12-08T07:41:23.881Z,3.63
2022-12-08T07:43:50.545Z,4.20
2022-12-08T07:46:18.210Z,4.50
2022-12-08T07:48:44.717Z,4.55
2022-12-08T07:51:12.916Z,4.22
2022-12-08T07:53:42.539Z,5.22
2022-12-08T07:56:09.828Z,4.70
2022-12-08T07:58:36.201Z,4.47
2022-12-08T08:01:02.789Z,4.55
2022-12-08T08:03:29.258Z,5.43
2022-12-08T08:05:55.634Z,4.53
2022-12-08T08:08:22.042Z,4.38
2022-12-08T08:10:48.418Z,3.80
2022-12-08T08:13:14.776Z,5.00
2022-12-08T08:15:41.270Z,4.35
2022-12-08T08:18:07.825Z,4.32
2022-12-08T08:20:34.185Z,3.40
2022-12-08T08:23:00.539Z,2.70
2022-12-08T08:25:26.976Z,2.90
2022-12-08T08:27:54.185Z,2.40
2022-12-08T08:30:21.239Z,2.33
2022-12-08T08:32:48.395Z,2.15
2022-12-08T08:35:15.038Z,3.17
2022-12-08T08:37:47.076Z,2.53
2022-12-08T08:40:15.112Z,2.53
2022-12-08T08:42:41.480Z,2.38
2022-12-08T08:45:08.014Z,1.90
2022-12-08T08:47:34.346Z,2.15
2022-12-08T08:50:00.741Z,2.22
2022-12-08T08:52:27.116Z,1.88
2022-12-08T08:54:53.428Z,2.05
2022-12-08T08:57:25.269Z,2.00
2022-12-08T08:59:52.282Z,1.92
2022-12-08T09:02:19.017Z,2.08
2022-12-08T09:04:45.896Z,2.00
2022-12-08T09:07:12.788Z,2.35
2022-12-08T09:09:39.579Z,2.28
2022-12-08T09:12:06.077Z,1.80
2022-12-08T09:14:32.445Z,1.90
2022-12-08T09:16:58.797Z,2.13
2022-12-08T09:19:25.307Z,1.50
2022-12-08T09:21:51.691Z,1.83
2022-12-08T09:24:18.099Z,2.03
2022-12-08T09:26:44.814Z,1.90
2022-12-08T09:29:11.680Z,1.65
2022-12-08T09:31:38.224Z,1.40
2022-12-08T09:34:04.952Z,1.90
2022-12-08T09:36:31.401Z,1.60
2022-12-08T09:38:57.778Z,1.75
2022-12-08T09:41:24.052Z,1.90
2022-12-08T09:44:05.435Z,1.90
2022-12-08T09:46:33.851Z,2.05
2022-12-08T09:49:00.824Z,1.67
2022-12-08T09:51:34.917Z,1.85
2022-12-08T09:54:07.823Z,2.25
2022-12-08T09:56:36.381Z,1.50
2022-12-08T09:59:06.261Z,1.83
2022-12-08T10:01:34.482Z,2.00
2022-12-08T10:04:01.227Z,1.60
2022-12-08T10:06:31.237Z,2.05
2022-12-08T10:09:21.125Z,2.38
2022-12-08T10:12:04.167Z,2.20
2022-12-08T10:14:33.465Z,2.00
2022-12-08T10:17:11.250Z,2.03
2022-12-08T10:19:40.270Z,1.13
2022-12-08T10:22:18.905Z,1.83
2022-12-08T10:24:52.448Z,1.90
2022-12-08T10:27:18.930Z,2.15
2022-12-08T10:29:45.353Z,1.70
2022-12-08T10:32:16.634Z,1.70
2022-12-08T10:35:03.038Z,1.45
2022-12-08T10:37:29.411Z,1.67
2022-12-08T10:39:59.501Z,1.90
2022-12-08T10:42:28.474Z,1.60
2022-12-08T10:44:55.866Z,1.90
2022-12-08T10:47:23.624Z,1.85
2022-12-08T10:50:06.939Z,1.52
2022-12-08T10:52:37.838Z,1.60
2022-12-08T10:55:04.258Z,1.30
2022-12-08T10:57:30.549Z,1.27
2022-12-08T10:59:57.185Z,1.27
2022-12-08T11:02:23.878Z,1.20
2022-12-08T11:04:58.969Z,1.05
2022-12-08T11:07:25.567Z,1.20
2022-12-08T11:09:55.185Z,1.23
2022-12-08T11:12:22.001Z,1.20
2022-12-08T11:14:48.317Z,1.30
2022-12-08T11:17:15.996Z,1.73
2022-12-08T11:19:56.034Z,2.10
2022-12-08T11:22:22.400Z,1.25
2022-12-08T11:24:56.388Z,1.48
2022-12-08T11:27:22.808Z,1.80
2022-12-08T11:29:49.128Z,1.65
2022-12-08T11:32:15.422Z,1.45
2022-12-08T11:34:46.580Z,1.75
2022-12-08T11:37:35.146Z,1.60
2022-12-08T11:40:05.109Z,1.35
2022-12-08T11:42:35.425Z,1.50
2022-12-08T11:45:06.103Z,1.25
2022-12-08T11:47:56.261Z,1.27
2022-12-08T11:50:25.652Z,1.20
2022-12-08T11:52:52.386Z,1.38
2022-12-08T11:55:21.515Z,1.23
2022-12-08T11:57:48.557Z,1.50
2022-12-08T12:00:16.475Z,1.65
2022-12-08T12:02:45.775Z,1.50
2022-12-08T12:05:40.126Z,1.63
2022-12-08T12:08:22.903Z,1.40
2022-12-08T12:11:04.413Z,1.63
2022-12-08T12:13:54.433Z,1.70
2022-12-08T12:16:30.177Z,1.60
2022-12-08T12:18:59.166Z,2.08
2022-12-08T12:21:29.166Z,1.98
2022-12-08T12:23:57.724Z,2.10
2022-12-08T12:26:25.816Z,2.05
2022-12-08T12:28:57.613Z,2.10
2022-12-08T12:31:53.176Z,2.67
2022-12-08T12:34:24.346Z,2.00
2022-12-08T12:36:55.634Z,2.03
2022-12-08T12:39:25.125Z,1.45
2022-12-08T12:41:55.272Z,1.30
2022-12-08T12:44:23.943Z,1.40
2022-12-08T12:46:50.236Z,1.80
2022-12-08T12:49:35.140Z,1.25
2022-12-08T12:52:01.814Z,1.23
2022-12-08T12:54:29.480Z,1.00
2022-12-08T12:57:18.817Z,1.20
2022-12-08T12:59:47.852Z,1.20
2022-12-08T13:02:20.089Z,1.67
2022-12-08T13:04:54.310Z,1.58
2022-12-08T13:07:21.787Z,1.50
2022-12-08T13:09:55.332Z,1.90
2022-12-08T13:12:23.466Z,2.38
2022-12-08T13:14:51.004Z,2.13
2022-12-08T13:17:24.226Z,2.20
2022-12-08T13:19:53.974Z,2.40
2022-12-08T13:22:38.889Z,2.63
2022-12-08T13:25:23.694Z,2.58
2022-12-08T13:27:54.031Z,2.20
2022-12-08T13:30:39.104Z,2.80
2022-12-08T13:33:21.017Z,2.70
2022-12-08T13:35:51.446Z,2.50
2022-12-08T13:38:20.547Z,2.25
2022-12-08T13:40:47.160Z,1.88
2022-12-08T13:43:19.669Z,2.13
2022-12-08T13:46:48.769Z,1.98
2022-12-08T13:50:22.988Z,1.60
2022-12-08T13:57:23.759Z,1.73
2022-12-08T13:59:50.112Z,1.92
2022-12-08T14:02:48.936Z,1.70
2022-12-08T14:05:19.157Z,1.60
2022-12-08T14:07:47.032Z,2.08
2022-12-08T14:10:16.375Z,2.35
2022-12-08T14:12:45.713Z,1.95
2022-12-08T14:15:13.592Z,2.25
2022-12-08T14:17:40.373Z,2.40
2022-12-08T14:20:12.517Z,2.08
2022-12-08T14:22:39.639Z,2.05
2022-12-08T14:25:07.322Z,2.67
2022-12-08T14:27:35.552Z,2.60
2022-12-08T14:30:05.140Z,2.47
2022-12-08T14:32:37.584Z,3.00
2022-12-08T14:35:06.785Z,2.80
2022-12-08T14:37:43.763Z,3.00
2022-12-08T14:40:22.911Z,3.30
2022-12-08T14:42:55.309Z,3.67
2022-12-08T14:45:21.941Z,3.95
2022-12-08T14:47:48.593Z,4.10
2022-12-08T14:50:36.692Z,4.45
2022-12-08T14:53:03.401Z,4.20
2022-12-08T14:55:34.621Z,4.40
2022-12-08T14:58:01.044Z,4.57
2022-12-08T15:00:27.782Z,5.10
2022-12-08T15:02:55.686Z,5.22
2022-12-08T15:05:25.639Z,4.57
2022-12-08T15:07:53.635Z,5.03
2022-12-08T15:10:22.469Z,4.65
2022-12-08T15:13:03.885Z,4.63
2022-12-08T15:15:31.110Z,4.88
2022-12-08T15:18:00.814Z,5.18
2022-12-08T15:20:35.643Z,5.40
2022-12-08T15:23:02.493Z,5.15
2022-12-08T15:25:28.806Z,5.18
2022-12-08T15:27:56.510Z,5.40
2022-12-08T15:30:23.406Z,5.80
2022-12-08T15:32:52.168Z,5.75
2022-12-08T15:35:18.506Z,5.60
2022-12-08T15:37:44.965Z,5.95
2022-12-08T15:40:18.665Z,5.78
2022-12-08T15:42:44.970Z,5.88
2022-12-08T15:45:12.237Z,6.53
2022-12-08T15:47:38.641Z,6.30
2022-12-08T15:50:05.879Z,6.45
2022-12-08T15:52:32.660Z,6.53
2022-12-08T15:54:59.113Z,6.25
2022-12-08T15:58:04.621Z,6.53
2022-12-08T16:00:50.490Z,6.30
2022-12-08T16:03:34.097Z,7.43
2022-12-08T16:06:20.436Z,6.25
2022-12-08T16:08:49.693Z,5.45
2022-12-08T16:12:05.367Z,5.88
2022-12-08T16:15:39.720Z,6.03
2022-12-08T16:17:14.561Z,6.32
2022-12-08T16:19:40.998Z,7.07
2022-12-08T16:24:54.166Z,8.52
2022-12-08T16:28:00.157Z,8.07
2022-12-08T16:30:15.978Z,7.75
2022-12-08T16:32:42.457Z,8.10
2022-12-08T16:35:10.293Z,8.15
2022-12-08T16:37:36.640Z,8.98
2022-12-08T16:40:03.804Z,8.52
2022-12-08T16:42:40.238Z,10.18
2022-12-08T16:45:08.438Z,9.90
2022-12-08T16:47:35.646Z,10.27
2022-12-08T16:50:09.828Z,9.63
2022-12-08T16:52:36.203Z,9.85
2022-12-08T16:55:03.103Z,10.50
2022-12-08T16:57:29.708Z,10.38
2022-12-08T16:59:56.441Z,9.73
2022-12-08T17:02:22.797Z,8.98
2022-12-08T17:04:49.255Z,10.40
2022-12-08T17:07:16.238Z,10.52
2022-12-08T17:09:42.969Z,9.77
2022-12-08T17:12:10.572Z,10.70
2022-12-08T17:14:37.040Z,9.57
2022-12-08T17:17:03.651Z,10.23
2022-12-08T17:19:30.105Z,9.43
2022-12-08T17:21:56.499Z,8.73
2022-12-08T17:24:24.992Z,9.23
2022-12-08T17:26:52.798Z,9.05
2022-12-08T17:29:19.173Z,9.18
2022-12-08T17:31:45.559Z,9.57
2022-12-08T17:34:12.029Z,9.80
2022-12-08T17:36:38.340Z,10.00
2022-12-08T17:39:04.887Z,10.02
2022-12-08T17:41:31.632Z,9.98
2022-12-08T17:43:58.025Z,10.00
2022-12-08T17:46:24.525Z,10.43
2022-12-08T17:48:51.422Z,15.05
2022-12-08T17:51:17.719Z,11.18
2022-12-08T17:53:47.169Z,9.95
2022-12-08T17:56:18.990Z,18.60
2022-12-08T17:58:47.589Z,15.30
2022-12-08T18:01:19.939Z,12.27
2022-12-08T18:03:46.313Z,10.38
2022-12-08T18:06:12.776Z,10.32
2022-12-08T18:08:39.535Z,9.40
2022-12-08T18:11:10.551Z,12.13
2022-12-08T18:13:36.860Z,11.48
2022-12-08T18:16:03.233Z,14.90
2022-12-08T18:18:29.516Z,14.10
2022-12-08T18:20:55.847Z,15.98
2022-12-08T18:23:22.185Z,13.43
2022-12-08T18:25:48.492Z,36.47
2022-12-08T18:28:14.840Z,14.43
2022-12-08T18:30:41.263Z,14.43
2022-12-08T18:33:08.101Z,15.45
2022-12-08T18:35:34.569Z,15.43
2022-12-08T18:38:01.018Z,15.07
2022-12-08T18:40:27.740Z,13.98
2022-12-08T18:42:54.203Z,14.13
2022-12-08T18:45:23.289Z,14.40
2022-12-08T18:47:50.290Z,15.15
2022-12-08T18:50:18.316Z,14.48
2022-12-08T18:52:48.604Z,15.48
2022-12-08T18:55:15.588Z,15.00
2022-12-08T18:57:43.126Z,17.85
2022-12-08T19:00:11.585Z,15.65
2022-12-08T19:02:38.725Z,16.40
2022-12-08T19:05:05.603Z,17.02
2022-12-08T19:07:31.923Z,16.10
2022-12-08T19:09:59.199Z,16.00
2022-12-08T19:12:25.553Z,17.10
2022-12-08T19:14:51.973Z,17.75
2022-12-08T19:17:18.306Z,18.58
2022-12-08T19:19:44.641Z,18.02
2022-12-08T19:22:12.217Z,17.77
2022-12-08T19:24:38.586Z,19.17
2022-12-08T19:27:05.675Z,17.60
2022-12-08T19:29:32.061Z,18.77
2022-12-08T19:31:58.836Z,18.90
2022-12-08T19:34:25.211Z,19.10
2022-12-08T19:36:51.842Z,17.60
2022-12-08T19:39:38.469Z,19.20
2022-12-08T19:42:50.109Z,18.55
2022-12-08T19:45:18.176Z,18.40
2022-12-08T19:47:44.715Z,19.63
2022-12-08T19:50:30.847Z,21.67
2022-12-08T19:52:57.821Z,20.77
2022-12-08T19:55:24.686Z,20.45
2022-12-08T19:57:51.500Z,20.42
2022-12-08T20:00:19.109Z,21.05
2022-12-08T20:02:45.792Z,20.38
2022-12-08T20:05:13.325Z,21.13
2022-12-08T20:07:40.247Z,22.15
2022-12-08T20:10:08.725Z,25.40
2022-12-08T20:12:35.348Z,23.45
2022-12-08T20:15:01.653Z,23.98
2022-12-08T20:17:28.021Z,22.65
2022-12-08T20:19:54.376Z,23.70
2022-12-08T20:22:20.722Z,23.05
2022-12-08T20:24:57.242Z,22.70
2022-12-08T20:27:26.318Z,23.05
2022-12-08T20:29:52.663Z,23.83
2022-12-08T20:32:19.073Z,22.27
2022-12-08T20:34:45.483Z,21.83
2022-12-08T20:37:11.801Z,19.63
2022-12-08T20:39:38.533Z,20.42
2022-12-08T20:42:04.892Z,23.05
2022-12-08T20:44:31.356Z,21.77
2022-12-08T20:46:57.783Z,22.88
2022-12-08T20:49:32.782Z,23.05
2022-12-08T20:52:00.885Z,21.63
2022-12-08T20:54:28.075Z,22.92
2022-12-08T20:56:54.462Z,23.63
2022-12-08T20:59:20.846Z,22.80
2022-12-08T21:01:47.314Z,24.38
2022-12-08T21:04:14.040Z,22.98
2022-12-08T21:06:40.637Z,22.25
2022-12-08T21:09:07.320Z,25.02
2022-12-08T21:11:33.897Z,25.70
2022-12-08T21:14:00.351Z,26.48
2022-12-08T21:16:27.018Z,24.00
2022-12-08T21:18:53.567Z,24.90
2022-12-08T21:21:20.031Z,25.67
2022-12-08T21:23:46.621Z,24.95
2022-12-08T21:26:17.647Z,25.38
2022-12-08T21:28:45.565Z,25.58
2022-12-08T21:31:13.570Z,24.33
2022-12-08T21:33:40.299Z,23.27
2022-12-08T21:36:09.085Z,24.00
2022-12-08T21:38:36.251Z,24.70
2022-12-08T21:41:04.097Z,23.00
2022-12-08T21:43:30.728Z,24.00
2022-12-08T21:45:57.119Z,23.42
2022-12-08T21:48:23.536Z,25.73
2022-12-08T21:50:50.033Z,25.35
2022-12-08T21:53:16.622Z,23.63
2022-12-08T21:55:43.161Z,25.75
2022-12-08T21:58:09.695Z,25.38
2022-12-08T22:00:36.248Z,26.25
2022-12-08T22:03:03.547Z,27.33
2022-12-08T22:05:30.211Z,25.27
2022-12-08T22:07:56.805Z,27.35
2022-12-08T22:10:23.500Z,27.50
2022-12-08T22:12:49.816Z,25.98
2022-12-08T22:15:16.170Z,26.70
2022-12-08T22:17:43.496Z,27.73
2022-12-08T22:20:12.535Z,26.35
2022-12-08T22:22:39.256Z,27.38
2022-12-08T22:25:06.437Z,28.42
2022-12-08T22:27:33.422Z,26.40
2022-12-08T22:29:59.801Z,26.80
2022-12-08T22:32:26.420Z,28.58
2022-12-08T22:34:52.836Z,27.90
2022-12-08T22:37:19.467Z,28.50
2022-12-08T22:39:46.001Z,28.33
2022-12-08T22:42:12.402Z,26.88
2022-12-08T22:44:38.700Z,26.77
2022-12-08T22:47:05.112Z,27.55
2022-12-08T22:49:31.668Z,27.02
2022-12-08T22:51:58.209Z,25.30
2022-12-08T22:54:24.593Z,27.35
2022-12-08T22:56:51.048Z,26.42
2022-12-08T22:59:17.415Z,26.80
2022-12-08T23:01:43.762Z,27.10
2022-12-08T23:04:17.220Z,27.02
2022-12-08T23:06:44.185Z,27.55
2022-12-08T23:09:10.618Z,27.73
2022-12-08T23:11:37.184Z,28.77
2022-12-08T23:14:03.848Z,28.65
2022-12-08T23:16:30.436Z,26.63
2022-12-08T23:18:57.002Z,27.63
2022-12-08T23:21:23.434Z,28.20
2022-12-08T23:23:50.068Z,29.70
2022-12-08T23:26:18.165Z,29.38
2022-12-08T23:28:44.546Z,29.23
2022-12-08T23:31:10.847Z,30.65
2022-12-08T23:33:37.257Z,28.17
2022-12-08T23:36:03.895Z,25.95
2022-12-08T23:38:30.327Z,27.08
2022-12-08T23:41:00.212Z,27.30
2022-12-08T23:43:26.577Z,25.42
2022-12-08T23:45:53.044Z,25.85
2022-12-08T23:48:19.585Z,23.38
2022-12-08T23:50:46.143Z,25.42
2022-12-08T23:53:12.743Z,25.25
2022-12-08T23:55:39.127Z,24.77
2022-12-08T23:58:05.637Z,24.92
